Time;durP1;ratioP1;P1;durP2;ratioP2;P2;SDS_P1;SDS_P2;PMS_P1;PMS_P2;Temp;Humidity;BMP_temperature;BMP_pressure;BME280_temperature;BME280_humidity;BME280_pressure;Samples;Min_cycle;Max_cycle;Signal;HPM_P1;HPM_P2
2023/11/27 00:00:47;;;;;;;15.55;5.65;;;8.70;99.90;;;;;;7402258;19;20011;-76
2023/11/27 00:03:16;;;;;;;20.08;5.60;;;8.70;99.90;;;;;;7386831;19;20295;-76
2023/11/27 00:05:45;;;;;;;22.02;5.28;;;8.70;99.90;;;;;;7386619;19;20024;-75
2023/11/27 00:08:16;;;;;;;12.57;5.68;;;8.70;99.90;;;;;;7387319;19;20010;-76
2023/11/27 00:10:47;;;;;;;15.57;5.68;;;8.60;99.90;;;;;;7387854;19;20020;-75
2023/11/27 00:13:15;;;;;;;12.70;4.90;;;8.70;99.90;;;;;;7385984;19;20276;-75
2023/11/27 00:15:44;;;;;;;12.15;4.80;;;8.70;99.90;;;;;;7411224;19;20014;-76
2023/11/27 00:18:13;;;;;;;15.55;5.47;;;8.70;99.90;;;;;;7386338;19;20011;-76
2023/11/27 00:20:42;;;;;;;12.63;5.28;;;8.70;99.90;;;;;;7387657;19;20015;-75
2023/11/27 00:23:18;;;;;;;11.73;4.00;;;8.60;99.90;;;;;;7387129;19;20007;-76
2023/11/27 00:25:47;;;;;;;13.50;4.55;;;8.60;99.90;;;;;;7390850;19;20017;-77
2023/11/27 00:28:17;;;;;;;16.75;5.55;;;8.60;99.90;;;;;;7390324;19;20012;-75
2023/11/27 00:30:46;;;;;;;9.15;4.55;;;8.60;99.90;;;;;;7412883;19;20020;-75
2023/11/27 00:33:15;;;;;;;8.38;4.53;;;8.50;99.90;;;;;;7382734;19;20019;-76
2023/11/27 00:35:43;;;;;;;12.52;4.25;;;8.50;99.90;;;;;;7383147;19;20070;-75
2023/11/27 00:38:12;;;;;;;12.88;5.03;;;8.50;99.90;;;;;;7384056;19;20006;-75
2023/11/27 00:40:46;;;;;;;9.65;4.40;;;8.50;99.90;;;;;;7384773;19;20003;-74
2023/11/27 00:43:15;;;;;;;12.02;4.18;;;8.50;99.90;;;;;;7384639;19;20003;-75
2023/11/27 00:45:43;;;;;;;10.05;4.65;;;8.60;99.90;;;;;;7406352;19;20011;-76
2023/11/27 00:48:12;;;;;;;14.38;4.70;;;8.60;99.90;;;;;;7380697;19;20067;-75
2023/11/27 00:50:41;;;;;;;14.93;4.80;;;8.70;99.90;;;;;;7383716;19;20011;-76
2023/11/27 00:53:09;;;;;;;15.23;4.50;;;8.70;99.90;;;;;;7383565;19;20266;-76
2023/11/27 00:55:38;;;;;;;17.42;4.97;;;8.70;99.90;;;;;;7383946;19;20085;-76
2023/11/27 00:58:10;;;;;;;15.55;4.60;;;8.60;99.90;;;;;;7384134;19;20010;-75
2023/11/27 01:00:39;;;;;;;14.73;4.45;;;8.60;99.90;;;;;;7405317;19;20013;-75
2023/11/27 01:03:08;;;;;;;19.35;4.13;;;8.60;99.90;;;;;;7383024;19;20016;-76
2023/11/27 01:05:37;;;;;;;13.60;4.65;;;8.50;99.90;;;;;;7383392;19;20035;-76
2023/11/27 01:08:08;;;;;;;19.80;4.47;;;8.60;99.90;;;;;;7387797;19;20098;-75
2023/11/27 01:10:36;;;;;;;15.50;4.65;;;8.60;99.90;;;;;;7390140;19;20070;-75
2023/11/27 01:13:05;;;;;;;7.90;3.80;;;8.70;99.90;;;;;;7389731;19;20006;-76
2023/11/27 01:18:47;;;;;;;22.90;4.00;;;8.60;99.90;;;;;;7282923;19;2004369;-76
2023/11/27 01:21:16;;;;;;;10.75;4.03;;;8.60;99.90;;;;;;7406968;19;20702;-76
2023/11/27 01:23:45;;;;;;;11.40;3.58;;;8.60;99.90;;;;;;7384324;19;20007;-76
2023/11/27 01:26:13;;;;;;;10.55;4.20;;;8.50;99.90;;;;;;7383224;19;20215;-76
2023/11/27 01:28:42;;;;;;;16.75;4.15;;;8.60;99.90;;;;;;7382979;19;20023;-76
2023/11/27 01:31:11;;;;;;;9.15;3.47;;;8.50;99.90;;;;;;7382144;19;20762;-76
2023/11/27 01:33:40;;;;;;;6.72;3.50;;;8.50;99.90;;;;;;7404219;19;20017;-75
2023/11/27 01:36:12;;;;;;;13.75;3.88;;;8.60;99.90;;;;;;7381602;19;20055;-75
2023/11/27 01:38:41;;;;;;;8.23;3.75;;;8.50;99.90;;;;;;7382025;19;20002;-77
2023/11/27 01:41:10;;;;;;;12.65;3.88;;;8.60;99.90;;;;;;7382209;19;20006;-76
2023/11/27 01:43:38;;;;;;;14.80;4.53;;;8.60;99.90;;;;;;7384565;19;20003;-75
2023/11/27 01:46:23;;;;;;;8.75;3.58;;;8.60;99.90;;;;;;7384174;19;20002;-75
2023/11/27 01:48:53;;;;;;;9.65;3.35;;;8.60;99.90;;;;;;7379705;19;20010;-75
2023/11/27 01:51:25;;;;;;;17.67;4.60;;;8.60;99.90;;;;;;7403361;19;20010;-76
2023/11/27 01:53:59;;;;;;;11.40;3.90;;;8.60;99.90;;;;;;7381153;19;20019;-76
2023/11/27 01:56:30;;;;;;;14.57;4.15;;;8.40;99.90;;;;;;7381233;19;20006;-75
2023/11/27 01:59:00;;;;;;;9.98;2.97;;;8.50;99.90;;;;;;7382693;19;20015;-76
2023/11/27 02:01:30;;;;;;;13.25;3.15;;;8.50;99.90;;;;;;7381676;19;20346;-75
2023/11/27 02:04:00;;;;;;;8.07;3.15;;;8.60;99.90;;;;;;7381405;19;20222;-75
2023/11/27 02:06:31;;;;;;;8.20;3.25;;;8.50;99.90;;;;;;7402601;19;20026;-75
2023/11/27 02:08:59;;;;;;;;;;;8.50;99.90;;;;;;7381389;19;20020;-74
2023/11/27 02:11:28;;;;;;;12.52;2.90;;;8.60;99.90;;;;;;7381012;19;20293;-75
2023/11/27 02:13:59;;;;;;;8.00;3.03;;;8.50;99.90;;;;;;7381126;19;20074;-75
2023/11/27 02:16:30;;;;;;;12.25;3.65;;;8.50;99.90;;;;;;7383218;19;20674;-75
2023/11/27 02:18:59;;;;;;;8.70;3.00;;;8.60;99.90;;;;;;7381115;19;20028;-75
2023/11/27 02:21:30;;;;;;;8.27;3.00;;;8.70;99.90;;;;;;7401913;19;20023;-75
2023/11/27 02:24:02;;;;;;;7.90;3.05;;;8.50;99.90;;;;;;7378055;19;20027;-75
2023/11/27 02:26:30;;;;;;;6.93;3.20;;;8.60;99.90;;;;;;7380057;19;20066;-75
2023/11/27 02:28:59;;;;;;;11.38;2.92;;;8.30;99.90;;;;;;7380724;19;20230;-74
2023/11/27 02:31:28;;;;;;;7.60;2.90;;;8.50;99.90;;;;;;7379922;19;20019;-76
2023/11/27 02:33:57;;;;;;;11.48;3.05;;;8.50;99.90;;;;;;7383781;19;20006;-75
2023/11/27 02:36:28;;;;;;;16.27;3.53;;;8.60;99.90;;;;;;7401660;19;20059;-75
2023/11/27 02:38:57;;;;;;;8.13;3.38;;;8.60;99.90;;;;;;7380111;19;20030;-75
2023/11/27 02:41:29;;;;;;;8.65;2.45;;;8.60;99.90;;;;;;7380104;19;20002;-74
2023/11/27 02:43:58;;;;;;;7.40;2.75;;;8.40;99.90;;;;;;7380430;19;20024;-76
2023/11/27 02:46:26;;;;;;;18.42;3.05;;;8.60;99.90;;;;;;7380378;19;19999;-75
2023/11/27 02:48:55;;;;;;;13.98;3.03;;;8.70;99.90;;;;;;7378280;19;20066;-75
2023/11/27 02:51:24;;;;;;;8.70;2.95;;;8.60;99.90;;;;;;7405125;19;20015;-75
2023/11/27 02:53:52;;;;;;;9.13;2.38;;;8.70;99.90;;;;;;7379350;19;20259;-75
2023/11/27 02:56:23;;;;;;;7.60;2.20;;;8.60;99.90;;;;;;7379405;19;20069;-75
2023/11/27 02:58:53;;;;;;;2.75;1.92;;;8.50;99.90;;;;;;7380512;19;20022;-75
2023/11/27 03:01:22;;;;;;;4.53;2.33;;;8.70;99.90;;;;;;7378581;19;20011;-75
2023/11/27 03:03:50;;;;;;;5.22;2.25;;;8.70;99.90;;;;;;7387836;19;20071;-74
2023/11/27 03:06:19;;;;;;;8.98;2.47;;;8.80;99.90;;;;;;7401027;19;20014;-75
2023/11/27 03:08:48;;;;;;;7.15;2.47;;;8.80;99.90;;;;;;7379312;19;20006;-75
2023/11/27 03:11:17;;;;;;;9.68;2.78;;;8.90;99.90;;;;;;7380378;19;20023;-75
2023/11/27 03:13:45;;;;;;;6.13;2.35;;;8.90;99.90;;;;;;7379626;19;20010;-75
2023/11/27 03:16:17;;;;;;;11.60;2.38;;;8.90;99.90;;;;;;7379006;19;20011;-75
2023/11/27 03:18:45;;;;;;;;;;;8.90;99.90;;;;;;7401280;19;20067;-75
2023/11/27 03:21:22;;;;;;;6.28;2.55;;;9.00;99.90;;;;;;7378660;19;19907;-76
2023/11/27 03:23:51;;;;;;;4.75;2.50;;;9.00;99.90;;;;;;7379241;19;20013;-75
2023/11/27 03:26:21;;;;;;;5.18;2.20;;;8.60;99.90;;;;;;7383685;19;19999;-76
2023/11/27 03:28:51;;;;;;;6.63;2.63;;;8.70;99.90;;;;;;7383460;19;20382;-76
2023/11/27 03:31:22;;;;;;;3.95;2.20;;;8.80;99.90;;;;;;7384059;19;20006;-75
2023/11/27 03:33:51;;;;;;;5.22;2.30;;;8.80;99.90;;;;;;7387371;19;20006;-75
2023/11/27 03:36:19;;;;;;;8.40;2.22;;;8.90;99.90;;;;;;7400171;19;20021;-75
2023/11/27 03:38:48;;;;;;;7.63;2.90;;;8.70;99.90;;;;;;7378010;19;20014;-76
2023/11/27 03:41:20;;;;;;;6.70;2.58;;;8.70;99.90;;;;;;7380094;19;20006;-75
2023/11/27 03:43:49;;;;;;;6.75;2.63;;;8.80;99.90;;;;;;7378638;19;20006;-75
2023/11/27 03:46:18;;;;;;;5.03;2.00;;;8.90;99.90;;;;;;7378690;19;20011;-76
2023/11/27 03:48:49;;;;;;;5.60;2.55;;;8.80;99.90;;;;;;7398173;19;20086;-75
2023/11/27 03:51:18;;;;;;;8.48;3.15;;;8.90;99.90;;;;;;7377894;19;20007;-76
2023/11/27 03:53:47;;;;;;;8.82;2.53;;;8.90;99.90;;;;;;7377410;19;20023;-76
2023/11/27 03:56:15;;;;;;;16.67;4.18;;;9.00;99.90;;;;;;7377483;19;20418;-75
2023/11/27 03:58:44;;;;;;;7.47;2.58;;;9.00;99.90;;;;;;7378313;19;20090;-76
2023/11/27 04:01:14;;;;;;;5.85;2.97;;;9.00;99.90;;;;;;7377750;19;20091;-76
2023/11/27 04:03:42;;;;;;;11.45;2.70;;;8.90;99.90;;;;;;7399186;19;20330;-76
2023/11/27 04:06:25;;;;;;;9.15;3.05;;;9.00;99.90;;;;;;7377352;19;20027;-77
2023/11/27 04:08:54;;;;;;;7.30;3.25;;;9.00;99.90;;;;;;7379042;19;20003;-75
2023/11/27 04:11:27;;;;;;;11.23;3.70;;;9.00;99.90;;;;;;7377534;19;20003;-75
2023/11/27 04:13:55;;;;;;;10.75;3.55;;;9.00;99.90;;;;;;7377801;19;20023;-76
2023/11/27 04:16:24;;;;;;;13.63;3.25;;;8.90;99.90;;;;;;7379027;19;20010;-76
2023/11/27 04:18:53;;;;;;;9.27;3.72;;;8.90;99.90;;;;;;7377498;19;20011;-76
2023/11/27 04:21:24;;;;;;;6.95;3.00;;;8.80;99.90;;;;;;7399145;19;20374;-76
2023/11/27 04:23:54;;;;;;;6.72;3.05;;;8.70;99.90;;;;;;7377001;19;20015;-76
2023/11/27 04:26:22;;;;;;;8.52;2.70;;;8.60;99.90;;;;;;7376771;19;20051;-76
2023/11/27 04:28:51;;;;;;;9.25;3.72;;;8.60;99.90;;;;;;7376366;19;20235;-76
2023/11/27 04:31:20;;;;;;;7.13;3.20;;;8.50;99.90;;;;;;7376595;19;20390;-75
2023/11/27 04:33:49;;;;;;;8.77;3.75;;;8.50;99.90;;;;;;7400206;19;20007;-77
2023/11/27 04:36:21;;;;;;;10.70;3.30;;;8.50;99.90;;;;;;7399372;19;20011;-74
2023/11/27 04:38:52;;;;;;;;;;;8.50;99.90;;;;;;7376936;19;20002;-75
2023/11/27 04:41:22;;;;;;;8.00;3.05;;;8.60;99.90;;;;;;7376719;19;19978;-76
2023/11/27 04:43:51;;;;;;;9.00;3.58;;;8.50;99.90;;;;;;7376328;19;20295;-74
2023/11/27 04:46:20;;;;;;;9.75;3.60;;;8.60;99.90;;;;;;7378285;19;20010;-74
2023/11/27 04:48:50;;;;;;;10.40;3.80;;;8.30;99.90;;;;;;7402893;19;20022;-75
2023/11/27 04:51:19;;;;;;;11.55;3.75;;;8.40;99.90;;;;;;7383069;19;20011;-75
2023/11/27 04:53:48;;;;;;;10.35;3.70;;;8.30;99.90;;;;;;7382784;19;20024;-74
2023/11/27 04:56:19;;;;;;;18.05;4.43;;;8.30;99.90;;;;;;7383318;19;20006;-75
2023/11/27 04:58:48;;;;;;;14.00;3.88;;;8.40;99.90;;;;;;7383077;19;20007;-75
2023/11/27 05:01:17;;;;;;;9.73;3.53;;;8.40;99.90;;;;;;7382572;19;20062;-76
2023/11/27 05:03:46;;;;;;;13.10;3.60;;;8.50;99.90;;;;;;7404898;19;20074;-75
2023/11/27 05:06:17;;;;;;;9.40;3.40;;;8.40;99.90;;;;;;7383217;19;20010;-75
2023/11/27 05:08:45;;;;;;;10.15;3.95;;;8.50;99.90;;;;;;7380884;19;20156;-75
2023/11/27 05:11:22;;;;;;;7.97;3.63;;;8.50;99.90;;;;;;7382822;19;20038;-75
2023/11/27 05:13:53;;;;;;;15.10;4.80;;;8.50;99.90;;;;;;7382355;19;20301;-75
2023/11/27 05:16:22;;;;;;;;;;;8.50;99.90;;;;;;7383249;19;20016;-76
2023/11/27 05:18:50;;;;;;;8.98;3.85;;;8.50;99.90;;;;;;7386632;19;19907;-76
2023/11/27 05:21:19;;;;;;;10.52;3.55;;;8.50;99.90;;;;;;7404398;19;20284;-76
2023/11/27 05:23:48;;;;;;;10.10;4.10;;;8.50;99.90;;;;;;7384439;19;20044;-76
2023/11/27 05:26:16;;;;;;;8.20;3.58;;;8.50;99.90;;;;;;7382273;19;20074;-74
2023/11/27 05:28:48;;;;;;;16.58;4.35;;;8.40;99.90;;;;;;7382123;19;20010;-75
2023/11/27 05:31:17;;;;;;;14.60;4.68;;;8.50;99.90;;;;;;7382358;19;20011;-75
2023/11/27 05:33:46;;;;;;;9.77;4.10;;;8.50;99.90;;;;;;7404436;19;20013;-76
2023/11/27 05:36:15;;;;;;;8.60;4.00;;;8.50;99.90;;;;;;7381688;19;20066;-76
2023/11/27 05:38:43;;;;;;;13.27;4.47;;;8.60;99.90;;;;;;7387537;19;20003;-75
2023/11/27 05:41:13;;;;;;;17.35;4.63;;;8.60;99.90;;;;;;7389081;19;20010;-76
2023/11/27 05:43:43;;;;;;;9.07;3.92;;;8.60;99.90;;;;;;7389104;19;20007;-75
2023/11/27 05:46:14;;;;;;;17.42;4.93;;;8.40;99.90;;;;;;7388555;19;20440;-76
2023/11/27 05:48:43;;;;;;;17.67;5.25;;;8.50;99.90;;;;;;7407570;19;20375;-75
2023/11/27 05:51:11;;;;;;;24.60;4.90;;;8.50;99.90;;;;;;7382363;19;20378;-75
2023/11/27 05:53:40;;;;;;;10.70;4.70;;;8.50;99.90;;;;;;7381095;19;20023;-75
2023/11/27 05:56:10;;;;;;;17.50;5.15;;;8.50;99.90;;;;;;7381398;19;20383;-74
2023/11/27 05:58:39;;;;;;;14.55;4.85;;;8.60;99.90;;;;;;7381485;19;19999;-75
2023/11/27 06:01:08;;;;;;;11.73;4.90;;;8.40;99.90;;;;;;7383830;19;20046;-75
2023/11/27 06:03:40;;;;;;;10.85;4.75;;;8.40;99.90;;;;;;7405995;19;20010;-75
2023/11/27 06:06:10;;;;;;;13.88;4.53;;;8.40;99.90;;;;;;7380611;19;20028;-75
2023/11/27 06:08:41;;;;;;;18.45;5.10;;;8.00;99.90;;;;;;7379864;19;20019;-75
2023/11/27 06:11:10;;;;;;;;;;;8.20;99.90;;;;;;7381439;19;19999;-75
2023/11/27 06:13:41;;;;;;;9.02;4.22;;;8.30;99.90;;;;;;7381383;19;19954;-76
2023/11/27 06:16:11;;;;;;;15.55;4.15;;;8.30;99.90;;;;;;7381244;19;20019;-76
2023/11/27 06:18:45;;;;;;;11.48;4.50;;;8.40;99.90;;;;;;7401855;19;20009;-76
2023/11/27 06:21:14;;;;;;;12.68;4.10;;;8.40;99.90;;;;;;7380291;19;20058;-76
2023/11/27 06:23:43;;;;;;;13.27;5.05;;;8.40;99.90;;;;;;7380600;19;20007;-75
2023/11/27 06:26:14;;;;;;;11.95;4.35;;;8.10;99.90;;;;;;7379330;19;20239;-76
2023/11/27 06:28:43;;;;;;;14.27;5.10;;;8.20;99.90;;;;;;7380788;19;20009;-76
2023/11/27 06:31:12;;;;;;;12.27;5.35;;;8.30;99.90;;;;;;7381953;19;20011;-76
2023/11/27 06:33:43;;;;;;;14.95;4.70;;;8.30;99.90;;;;;;7402196;19;20058;-76
2023/11/27 06:36:13;;;;;;;10.95;4.88;;;8.40;99.90;;;;;;7379297;19;20039;-76
2023/11/27 06:38:41;;;;;;;16.10;5.93;;;8.30;99.90;;;;;;7378787;19;20023;-74
2023/11/27 06:41:10;;;;;;;12.35;4.50;;;8.40;99.90;;;;;;7378825;19;20032;-76
2023/11/27 06:43:39;;;;;;;12.27;4.72;;;8.50;99.90;;;;;;7379160;19;20031;-74
2023/11/27 06:46:14;;;;;;;9.27;5.03;;;8.50;99.90;;;;;;7379913;19;20090;-75
2023/11/27 06:48:45;;;;;;;8.88;4.93;;;8.50;99.90;;;;;;7402095;19;20017;-75
2023/11/27 06:51:14;;;;;;;12.68;4.68;;;8.50;99.90;;;;;;7379259;19;20084;-75
2023/11/27 06:53:42;;;;;;;5.22;4.03;;;8.60;99.90;;;;;;7379347;19;20006;-76
2023/11/27 06:56:13;;;;;;;8.88;4.95;;;8.30;99.90;;;;;;7380376;19;20027;-75
2023/11/27 06:58:41;;;;;;;10.13;4.97;;;8.30;99.90;;;;;;7380091;19;20010;-76
2023/11/27 07:01:13;;;;;;;10.32;4.40;;;8.30;99.90;;;;;;7380181;19;20003;-74
2023/11/27 07:03:41;;;;;;;;;;;8.40;99.90;;;;;;7402272;19;20066;-76
2023/11/27 07:06:13;;;;;;;11.23;4.32;;;8.50;99.90;;;;;;7381593;19;19915;-75
2023/11/27 07:08:42;;;;;;;9.82;4.57;;;8.50;99.90;;;;;;7378189;19;20723;-75
2023/11/27 07:11:11;;;;;;;12.10;4.43;;;8.60;99.90;;;;;;7378198;19;20024;-74
2023/11/27 07:13:40;;;;;;;8.00;4.57;;;8.50;99.90;;;;;;7379185;19;20266;-75
2023/11/27 07:16:10;;;;;;;11.63;5.05;;;8.60;99.90;;;;;;7379431;19;20014;-75
2023/11/27 07:18:38;;;;;;;10.23;4.50;;;8.70;99.90;;;;;;7400270;19;20002;-75
2023/11/27 07:21:07;;;;;;;9.73;4.55;;;8.70;99.90;;;;;;7378880;19;20284;-75
2023/11/27 07:23:40;;;;;;;14.90;4.43;;;8.70;99.90;;;;;;7378823;19;20015;-76
2023/11/27 07:26:11;;;;;;;8.02;4.07;;;8.70;99.90;;;;;;7378621;19;20011;-75
2023/11/27 07:28:41;;;;;;;5.97;4.10;;;8.70;99.90;;;;;;7378571;19;20323;-75
2023/11/27 07:31:09;;;;;;;6.88;4.18;;;8.80;99.90;;;;;;7378899;19;20023;-74
2023/11/27 07:33:38;;;;;;;10.18;4.28;;;8.70;99.90;;;;;;7399592;19;20002;-74
2023/11/27 07:36:09;;;;;;;9.43;3.95;;;8.70;99.90;;;;;;7377771;19;20010;-75
2023/11/27 07:38:43;;;;;;;7.53;4.20;;;8.70;99.90;;;;;;7377894;19;20268;-74
2023/11/27 07:41:15;;;;;;;6.50;4.05;;;8.80;99.90;;;;;;7378149;19;20007;-75
2023/11/27 07:43:44;;;;;;;7.35;3.58;;;8.80;99.90;;;;;;7379066;19;20007;-74
2023/11/27 07:46:13;;;;;;;4.38;3.65;;;8.80;99.90;;;;;;7378277;19;20382;-75
2023/11/27 07:48:43;;;;;;;6.05;3.47;;;8.80;99.90;;;;;;7400264;19;20010;-76
2023/11/27 07:51:11;;;;;;;8.60;3.58;;;8.80;99.90;;;;;;7379822;19;20016;-75
2023/11/27 07:53:44;;;;;;;12.50;4.18;;;8.80;99.90;;;;;;7385890;19;20003;-75
2023/11/27 07:56:13;;;;;;;6.30;3.55;;;8.90;99.90;;;;;;7384171;19;20014;-75
2023/11/27 07:58:44;;;;;;;7.55;3.80;;;8.90;99.90;;;;;;7386771;19;20007;-76
2023/11/27 08:01:16;;;;;;;1999.90;176.93;;;8.90;99.90;;;;;;7384217;19;20006;-77
2023/11/27 08:03:45;;;;;;;14.65;4.05;;;8.90;99.90;;;;;;7400995;19;20009;-77
2023/11/27 08:06:14;;;;;;;8.32;3.10;;;8.60;99.90;;;;;;7378001;19;20013;-78
2023/11/27 08:08:47;;;;;;;169.73;9.75;;;8.60;99.90;;;;;;7378026;19;20014;-78
2023/11/27 08:11:18;;;;;;;6.93;4.00;;;8.70;99.90;;;;;;7380405;19;20087;-79
2023/11/27 08:13:57;;;;;;;4.33;2.83;;;8.80;99.90;;;;;;7388430;19;20056;-80
2023/11/27 08:16:28;;;;;;;6.55;2.92;;;8.80;99.90;;;;;;7383923;19;20491;-78
2023/11/27 08:18:59;;;;;;;6.57;3.90;;;8.80;99.90;;;;;;7382034;19;20011;-78
2023/11/27 08:21:28;;;;;;;;;;;8.90;99.90;;;;;;7406502;19;20277;-77
2023/11/27 08:23:59;;;;;;;22.75;5.38;;;8.80;99.90;;;;;;7387765;19;19915;-77
2023/11/27 08:26:39;;;;;;;11.80;4.00;;;8.80;99.90;;;;;;7384820;19;20003;-77
2023/11/27 08:29:08;;;;;;;8.07;3.20;;;8.80;99.90;;;;;;7383456;19;20051;-76
2023/11/27 08:31:40;;;;;;;9.27;4.68;;;8.60;99.90;;;;;;7386336;19;20081;-77
2023/11/27 08:34:13;;;;;;;8.38;4.22;;;8.50;99.90;;;;;;7394808;19;19995;-78
2023/11/27 08:36:42;;;;;;;;;;;8.40;99.90;;;;;;7412970;19;20470;-77
2023/11/27 08:39:14;;;;;;;13.95;4.95;;;8.60;99.90;;;;;;7385615;19;19911;-79
2023/11/27 08:41:44;;;;;;;10.10;5.00;;;8.30;99.90;;;;;;7386314;19;20007;-76
2023/11/27 08:44:19;;;;;;;16.38;5.32;;;8.40;99.90;;;;;;7386522;19;20063;-80
2023/11/27 08:50:25;;;;;;;17.55;6.82;;;8.70;99.90;;;;;;7387748;19;20013;-81
2023/11/27 08:59:26;;;;;;;10.38;4.53;;;8.60;99.90;;;;;;7383206;19;20024;-76
2023/11/27 09:01:55;;;;;;;10.50;5.35;;;8.70;99.90;;;;;;7379234;19;20011;-77
2023/11/27 09:04:23;;;;;;;11.38;4.88;;;8.70;99.90;;;;;;7384733;19;20007;-76
2023/11/27 09:06:50;;;;;;;11.20;5.20;;;8.20;99.90;;;;;;7380298;19;20007;-76
2023/11/27 09:09:19;;;;;;;13.85;5.50;;;8.30;99.90;;;;;;7403786;19;20010;-77
2023/11/27 09:11:47;;;;;;;13.57;5.78;;;8.50;99.90;;;;;;7385974;19;20346;-78
2023/11/27 09:14:16;;;;;;;9.77;5.53;;;8.40;99.90;;;;;;7382105;19;20011;-77
2023/11/27 09:16:48;;;;;;;16.08;6.13;;;8.50;99.90;;;;;;7381910;19;20007;-77
2023/11/27 09:19:16;;;;;;;9.95;4.57;;;8.50;99.90;;;;;;7380579;19;20010;-76
2023/11/27 09:21:45;;;;;;;9.85;4.93;;;8.60;99.90;;;;;;7405211;19;20121;-75
2023/11/27 09:24:14;;;;;;;9.40;4.78;;;8.40;99.90;;;;;;7380120;19;20003;-76
2023/11/27 09:26:43;;;;;;;12.27;5.40;;;8.50;99.90;;;;;;7380639;19;20004;-76
2023/11/27 09:29:28;;;;;;;8.20;4.95;;;8.70;99.90;;;;;;7414714;19;20113;-82
2023/11/27 09:38:25;;;;;;;7.88;4.20;;;8.90;99.90;;;;;;7387782;19;20148;-79
2023/11/27 09:40:55;;;;;;;7.13;4.95;;;8.70;99.90;;;;;;7385979;19;19999;-80
2023/11/27 09:43:27;;;;;;;5.93;4.05;;;8.50;99.90;;;;;;7387399;19;20010;-81
2023/11/27 09:46:01;;;;;;;9.60;4.07;;;8.40;99.90;;;;;;7389862;19;20003;-79
2023/11/27 09:48:30;;;;;;;7.00;3.90;;;8.60;99.90;;;;;;7407512;19;20262;-79
2023/11/27 09:51:06;;;;;;;8.90;4.20;;;8.30;99.90;;;;;;7389156;19;19999;-80
2023/11/27 09:53:40;;;;;;;6.90;4.13;;;8.30;99.90;;;;;;7384616;19;20213;-79
2023/11/27 09:56:11;;;;;;;6.68;4.05;;;8.60;99.90;;;;;;7384012;19;20078;-77
2023/11/27 09:59:03;;;;;;;6.85;3.95;;;8.50;99.90;;;;;;7382066;19;20029;-80
2023/11/27 10:01:34;;;;;;;6.35;3.95;;;8.60;99.90;;;;;;7382107;19;20019;-79
2023/11/27 10:04:07;;;;;;;7.68;4.47;;;8.50;99.90;;;;;;7384019;19;20434;-80
2023/11/27 10:06:41;;;;;;;10.00;4.68;;;8.60;99.90;;;;;;7408588;19;20015;-79
2023/11/27 10:13:04;;;;;;;;;;;;;;;;;;;;;
2023/11/27 10:24:18;;;;;;;16.10;8.98;;;8.60;99.90;;;;;;7400495;19;20011;-79
2023/11/27 10:27:23;;;;;;;16.13;5.95;;;8.70;99.90;;;;;;7398658;19;20007;-81
2023/11/27 10:29:55;;;;;;;13.88;5.95;;;8.70;99.90;;;;;;7393564;19;20386;-78
2023/11/27 10:36:07;;;;;;;13.63;4.43;;;8.90;99.90;;;;;;7389290;19;19995;-79
2023/11/27 10:42:34;;;;;;;9.73;5.30;;;9.10;99.90;;;;;;7411634;19;20495;-80
2023/11/27 10:45:55;;;;;;;9.95;6.35;;;9.00;99.90;;;;;;7383711;19;20749;-80
2023/11/27 10:52:04;;;;;;;8.60;4.90;;;8.70;99.90;;;;;;7410816;19;19992;-85
2023/11/27 11:05:01;;;;;;;;;;;;;;;;;;;;;
2023/11/27 11:11:08;;;;;;;9.55;4.70;;;9.00;99.90;;;;;;7385393;19;20013;-80
2023/11/27 11:13:37;;;;;;;10.75;4.40;;;9.10;99.90;;;;;;7381729;19;19999;-79
2023/11/27 11:16:18;;;;;;;6.43;3.85;;;8.90;99.90;;;;;;7380798;19;20021;-78
2023/11/27 11:23:02;;;;;;;5.10;3.72;;;8.90;99.90;;;;;;7278773;19;2004427;-81
2023/11/27 11:26:30;;;;;;;9.20;4.30;;;9.10;99.90;;;;;;7379771;19;19999;-80
2023/11/27 11:29:11;;;;;;;6.05;3.83;;;9.10;99.90;;;;;;7356895;19;20014;-78
2023/11/27 11:31:49;;;;;;;10.55;4.50;;;9.10;99.90;;;;;;7398274;19;20006;-78
2023/11/27 11:34:41;;;;;;;7.20;4.35;;;9.00;99.90;;;;;;7379173;19;20011;-78
2023/11/27 11:37:11;;;;;;;7.97;4.95;;;9.10;99.90;;;;;;7378263;19;20566;-77
2023/11/27 11:40:20;;;;;;;;;;;;;;;;;;;;;
2023/11/27 11:49:18;;;;;;;6.00;3.38;;;9.30;99.90;;;;;;7387263;19;19991;-80
2023/11/27 11:52:15;;;;;;;10.30;3.30;;;9.30;99.90;;;;;;7407495;19;20374;-83
2023/11/27 11:54:47;;;;;;;4.18;3.17;;;9.20;99.90;;;;;;7385345;19;20007;-76
2023/11/27 11:57:23;;;;;;;20.00;3.92;;;9.30;99.90;;;;;;7382201;19;20011;-77
2023/11/27 11:59:53;;;;;;;46.30;6.43;;;9.30;99.90;;;;;;7387313;19;19999;-77
2023/11/27 12:02:24;;;;;;;7.57;3.60;;;9.40;99.90;;;;;;7384962;19;20007;-76
2023/11/27 12:04:55;;;;;;;627.05;63.90;;;9.40;99.90;;;;;;7385561;19;20038;-77
2023/11/27 12:07:24;;;;;;;;;;;9.40;99.90;;;;;;7386551;19;20011;-77
2023/11/27 12:09:57;;;;;;;8.88;4.72;;;9.50;99.90;;;;;;7383299;19;19918;-78
2023/11/27 12:12:27;;;;;;;9.23;5.32;;;9.60;99.90;;;;;;7408926;19;20014;-76
2023/11/27 12:14:56;;;;;;;4.78;2.92;;;9.40;99.90;;;;;;7386265;19;20017;-75
2023/11/27 12:17:29;;;;;;;7.95;3.08;;;9.10;99.90;;;;;;7384288;19;20092;-77
2023/11/27 12:20:04;;;;;;;7.03;3.67;;;9.30;99.90;;;;;;7385129;19;20006;-77
2023/11/27 12:22:32;;;;;;;4.40;3.03;;;9.50;99.90;;;;;;7384012;19;20003;-77
2023/11/27 12:25:01;;;;;;;5.38;2.90;;;9.60;99.90;;;;;;7385286;19;20024;-76
2023/11/27 12:27:34;;;;;;;7.47;3.33;;;9.60;99.90;;;;;;7409720;19;20264;-76
2023/11/27 12:30:03;;;;;;;5.47;3.42;;;9.70;99.90;;;;;;7385978;19;20018;-77
2023/11/27 12:32:32;;;;;;;5.13;3.15;;;9.60;99.90;;;;;;7384745;19;20011;-77
2023/11/27 12:35:14;;;;;;;9.25;3.25;;;9.50;99.90;;;;;;7386444;19;20226;-76
2023/11/27 12:37:42;;;;;;;5.30;3.25;;;9.70;99.90;;;;;;7388599;19;20276;-76
2023/11/27 12:40:17;;;;;;;4.72;3.33;;;9.70;99.90;;;;;;7389753;19;20019;-76
2023/11/27 12:42:47;;;;;;;3.85;2.90;;;9.70;99.90;;;;;;7414013;19;20003;-76
2023/11/27 12:45:21;;;;;;;41.05;4.40;;;9.70;99.90;;;;;;7393283;19;20006;-76
2023/11/27 12:47:50;;;;;;;4.75;2.83;;;9.80;99.90;;;;;;7392396;19;20018;-77
2023/11/27 12:50:38;;;;;;;4.18;2.70;;;9.80;99.90;;;;;;7392414;19;20014;-76
2023/11/27 12:53:09;;;;;;;6.45;2.72;;;9.80;99.90;;;;;;7389680;19;20016;-77
2023/11/27 12:55:46;;;;;;;6.47;3.47;;;9.90;99.90;;;;;;7385207;19;20036;-77
2023/11/27 12:58:17;;;;;;;6.28;3.55;;;9.90;99.90;;;;;;7384686;19;20388;-75
2023/11/27 13:00:47;;;;;;;3.35;2.60;;;9.80;99.90;;;;;;7403314;19;20003;-77
2023/11/27 13:03:19;;;;;;;7.68;2.72;;;9.50;99.90;;;;;;7387279;19;20027;-76
2023/11/27 13:05:54;;;;;;;22.92;5.70;;;9.50;99.90;;;;;;7387816;19;20255;-77
2023/11/27 13:08:31;;;;;;;4.80;2.60;;;9.60;99.90;;;;;;7386428;19;20010;-77
2023/11/27 13:11:05;;;;;;;4.72;2.30;;;9.60;99.90;;;;;;7383983;19;20370;-80
2023/11/27 13:13:34;;;;;;;4.05;2.75;;;9.60;99.90;;;;;;7386570;19;20011;-77
2023/11/27 13:16:08;;;;;;;6.32;4.07;;;9.40;99.90;;;;;;7391550;19;20007;-80
2023/11/27 13:18:56;;;;;;;3.47;2.22;;;9.70;99.90;;;;;;7410516;19;20010;-82
2023/11/27 13:24:29;;;;;;;4.75;2.30;;;9.90;99.90;;;;;;7381148;19;20007;-80
2023/11/27 13:27:05;;;;;;;2.28;1.88;;;9.90;99.90;;;;;;7384730;19;20018;-78
2023/11/27 13:29:33;;;;;;;2.30;2.00;;;10.10;99.90;;;;;;7383982;19;20007;-76
2023/11/27 13:34:58;;;;;;;8.10;2.20;;;10.10;99.90;;;;;;7381837;19;20009;-76
2023/11/27 13:37:34;;;;;;;2.40;1.95;;;10.20;99.90;;;;;;7384012;19;19998;-78
2023/11/27 13:40:04;;;;;;;3.88;2.03;;;10.20;99.90;;;;;;7385034;19;20395;-78
2023/11/27 13:42:33;;;;;;;3.17;2.05;;;10.00;99.90;;;;;;7405517;19;20024;-78
2023/11/27 13:45:03;;;;;;;2.60;1.92;;;10.20;99.90;;;;;;7384505;19;20373;-78
2023/11/27 13:47:33;;;;;;;2.65;2.15;;;10.20;99.90;;;;;;7383769;19;20007;-78
2023/11/27 13:50:01;;;;;;;3.38;2.47;;;10.30;99.90;;;;;;7380581;19;20324;-77
2023/11/27 13:56:30;;;;;;;2.45;1.90;;;10.40;99.90;;;;;;7410197;19;20013;-82
2023/11/27 13:59:02;;;;;;;3.22;2.03;;;10.30;99.90;;;;;;7380105;19;20014;-74
2023/11/27 14:01:30;;;;;;;3.20;2.17;;;10.30;99.90;;;;;;7379224;19;20007;-76
2023/11/27 14:04:27;;;;;;;2.58;1.80;;;10.20;99.90;;;;;;7379051;19;20362;-76
2023/11/27 14:06:51;;;;;;;2.70;1.98;;;10.30;99.90;;;;;;7401144;19;20014;-74
2023/11/27 14:12:38;;;;;;;4.10;2.97;;;10.30;99.90;;;;;;7381235;19;19997;-80
2023/11/27 14:18:49;;;;;;;3.10;2.15;;;10.20;99.90;;;;;;7382317;19;20002;-79
2023/11/27 14:24:44;;;;;;;4.72;2.33;;;10.40;99.90;;;;;;7403363;19;20013;-74
2023/11/27 14:27:23;;;;;;;3.08;2.53;;;10.40;99.90;;;;;;7383769;19;20038;-74
2023/11/27 14:29:52;;;;;;;6.28;3.15;;;10.10;99.90;;;;;;7377845;19;20006;-73
2023/11/27 14:32:27;;;;;;;3.97;2.95;;;10.30;99.90;;;;;;7380018;19;20051;-78
2023/11/27 14:34:59;;;;;;;5.35;2.92;;;10.30;99.90;;;;;;7383508;19;20007;-74
2023/11/27 14:37:35;;;;;;;4.70;2.70;;;10.40;99.90;;;;;;7380818;19;20058;-77
2023/11/27 14:40:17;;;;;;;6.82;3.40;;;10.50;99.90;;;;;;7381532;19;20006;-78
2023/11/27 14:42:46;;;;;;;6.35;3.40;;;10.50;99.90;;;;;;7401307;19;20535;-77
2023/11/27 14:45:17;;;;;;;3.83;2.97;;;10.50;99.90;;;;;;7383726;19;20007;-77
2023/11/27 14:47:49;;;;;;;5.47;3.50;;;10.50;99.90;;;;;;7381816;19;19999;-79